GB-0594 weather

Wessex Hang Gliding & Paragliding Club
Osmington, England, United Kingdom

Public forecast

Using degrees Celsius for public forecast. Weather courtesy of forecast.io.

METAR (pilot weather report)

Report is more than 2 hours old.

Closest report is Bournemouth Airport, 22.6 nm (41.9 km) ENE. Retrieved 2019/07/22 22:20 UTC (6 hours ago):

EGHH 222220Z 06002KT 9999 MIFG NSC 16/15 Q1021

TAF (pilot weather forecast)

Forecast is more than 12 hours old.

Closest forecast is Bournemouth Airport, 22.6 nm (41.9 km) ENE. Retrieved 2013/12/01 21:21 UTC (6 years ago):

TAF TAF EGHH 010016Z 3021/0106 CNL